Time;durP1;ratioP1;P1;durP2;ratioP2;P2;SDS_P1;SDS_P2;PMS_P1;PMS_P2;Temp;Humidity;BMP_temperature;BMP_pressure;BME280_temperature;BME280_humidity;BME280_pressure;Samples;Min_cycle;Max_cycle;Signal;HPM_P1;HPM_P2
2023/12/21 15:24:02;;;;;;;3.13;1.58;;;;;;;8.63;53.61;91458.00;5126958;27;20145;-77
2023/12/21 15:26:28;;;;;;;4.55;1.40;;;;;;;8.54;54.24;91456.13;5127033;28;20043;-76
2023/12/21 15:28:53;;;;;;;2.58;1.60;;;;;;;8.45;54.33;91460.50;5109505;28;20495;-76
2023/12/21 15:31:19;;;;;;;2.47;1.42;;;;;;;8.41;55.46;91456.19;5127588;28;20023;-76
2023/12/21 15:33:44;;;;;;;3.15;1.60;;;;;;;8.26;55.72;91436.41;5128200;28;20088;-77
2023/12/21 15:36:15;;;;;;;3.33;1.60;;;;;;;8.10;56.23;91426.34;5127958;28;20028;-76
2023/12/21 15:38:41;;;;;;;2.40;1.40;;;;;;;8.03;58.78;91414.78;5128076;27;20100;-77
2023/12/21 15:41:20;;;;;;;3.08;1.55;;;;;;;7.84;58.46;91401.94;5126749;28;20483;-77
2023/12/21 15:43:47;;;;;;;2.53;1.45;;;;;;;7.81;56.17;91418.16;5127389;28;20039;-77
2023/12/21 15:46:15;;;;;;;2.95;1.60;;;;;;;7.76;54.80;91415.66;5128108;28;20076;-77
2023/12/21 15:48:41;;;;;;;2.28;1.42;;;;;;;7.72;54.80;91402.44;5127581;28;20039;-77
2023/12/21 15:51:07;;;;;;;3.83;1.70;;;;;;;7.61;55.16;91401.91;5126500;28;20126;-76
2023/12/21 15:53:33;;;;;;;2.55;1.40;;;;;;;7.54;55.59;91396.31;5127140;28;20024;-77
2023/12/21 15:55:59;;;;;;;2.15;1.30;;;;;;;7.42;56.81;91380.44;5127286;28;20058;-77
2023/12/21 15:58:24;;;;;;;2.80;1.52;;;;;;;7.35;56.89;91378.25;5127579;28;20031;-77
2023/12/21 16:00:50;;;;;;;2.78;1.48;;;;;;;7.24;56.96;91361.31;5127542;28;20028;-76
2023/12/21 16:03:16;;;;;;;2.75;1.52;;;;;;;7.12;56.62;91382.63;5126547;27;20023;-77
2023/12/21 16:05:42;;;;;;;1.98;1.35;;;;;;;7.05;56.49;91367.41;5126750;28;20126;-77
2023/12/21 16:08:09;;;;;;;2.13;1.40;;;;;;;7.04;56.39;91375.50;5126577;28;20164;-77
2023/12/21 16:10:35;;;;;;;2.47;1.55;;;;;;;6.97;56.84;91356.91;5126494;28;20038;-77
2023/12/21 16:13:00;;;;;;;2.13;1.40;;;;;;;6.87;57.62;91355.28;5125300;28;20705;-77
2023/12/21 16:15:26;;;;;;;2.92;1.40;;;;;;;6.80;58.41;91354.88;5126166;28;20051;-75
2023/12/21 16:17:52;;;;;;;2.63;1.20;;;;;;;6.73;58.43;91355.25;5126227;28;20521;-77
2023/12/21 16:20:19;;;;;;;1.50;1.20;;;;;;;6.71;58.08;91367.03;5125449;28;20546;-77
2023/12/21 16:22:45;;;;;;;1.70;1.30;;;;;;;6.63;58.87;91371.09;5127285;28;20410;-76
2023/12/21 16:25:11;;;;;;;1.92;1.40;;;;;;;6.54;58.82;91339.78;5126936;28;20446;-76
2023/12/21 16:27:36;;;;;;;2.22;1.40;;;;;;;6.48;58.60;91330.53;5124944;28;20028;-77
2023/12/21 16:30:03;;;;;;;4.80;1.85;;;;;;;6.36;59.15;91333.59;5125809;28;20036;-77
2023/12/21 16:32:29;;;;;;;2.70;1.40;;;;;;;6.30;59.77;91334.75;5125967;28;20055;-76
2023/12/21 16:34:55;;;;;;;2.13;1.40;;;;;;;6.29;58.12;91329.84;5114290;28;20027;-76
2023/12/21 16:37:20;;;;;;;1.75;1.25;;;;;;;6.29;57.96;91309.81;5112318;28;20036;-77
2023/12/21 16:39:46;;;;;;;2.45;1.40;;;;;;;6.28;58.76;91308.25;5111128;28;20106;-77
2023/12/21 16:42:12;;;;;;;2.67;1.30;;;;;;;6.26;59.17;91307.81;5112287;28;20019;-77
2023/12/21 16:44:38;;;;;;;2.20;1.23;;;;;;;6.18;58.65;91298.06;5112829;28;20047;-77
2023/12/21 16:47:04;;;;;;;1.27;1.08;;;;;;;6.13;59.64;91285.94;5112016;28;20035;-76
2023/12/21 16:49:30;;;;;;;1.88;1.27;;;;;;;6.09;59.22;91284.22;5110584;28;20039;-76
2023/12/21 16:51:57;;;;;;;2.42;1.40;;;;;;;6.10;58.68;91293.53;5108074;28;20042;-78
2023/12/21 16:54:23;;;;;;;3.63;1.60;;;;;;;6.05;59.30;91289.97;5106615;28;20066;-76
2023/12/21 16:56:49;;;;;;;3.13;1.75;;;;;;;6.03;59.46;91292.09;5099374;28;20071;-76
2023/12/21 16:59:14;;;;;;;2.63;1.60;;;;;;;6.02;59.86;91305.38;5102419;28;20106;-76
2023/12/21 17:01:39;;;;;;;4.72;2.30;;;;;;;5.94;60.24;91299.00;5110488;28;20118;-77
2023/12/21 17:04:05;;;;;;;3.15;1.90;;;;;;;5.90;59.27;91279.81;5100790;28;20487;-76
2023/12/21 17:06:31;;;;;;;3.35;1.70;;;;;;;5.88;58.08;91284.53;5091277;28;20119;-76
2023/12/21 17:08:57;;;;;;;3.50;1.90;;;;;;;5.87;59.06;91293.38;5090364;28;20020;-77
2023/12/21 17:11:22;;;;;;;3.10;2.00;;;;;;;5.81;59.70;91284.91;5111647;27;20042;-77
2023/12/21 17:13:48;;;;;;;3.03;1.90;;;;;;;5.80;59.55;91292.97;5099816;28;20039;-77
2023/12/21 17:16:14;;;;;;;3.97;2.20;;;;;;;5.73;59.93;91277.00;5091051;28;20127;-77
2023/12/21 17:18:39;;;;;;;3.40;2.00;;;;;;;5.73;58.79;91274.41;5105808;28;20490;-77
2023/12/21 17:21:05;;;;;;;5.25;1.95;;;;;;;5.75;58.23;91270.47;5111373;28;20081;-77
2023/12/21 17:23:30;;;;;;;5.25;1.77;;;;;;;5.72;57.62;91259.88;5111265;28;20590;-77
2023/12/21 17:25:56;;;;;;;6.10;1.73;;;;;;;5.69;58.56;91271.59;5101693;28;20047;-77
2023/12/21 17:28:23;;;;;;;2.67;1.30;;;;;;;5.66;57.88;91276.59;5093263;28;20031;-77
2023/12/21 17:30:53;;;;;;;2.15;1.30;;;;;;;5.66;55.91;91266.22;5110719;28;20048;-77
2023/12/21 17:33:21;;;;;;;3.55;1.80;;;;;;;5.66;55.74;91271.41;5111603;28;20032;-77
2023/12/21 17:35:46;;;;;;;2.53;1.50;;;;;;;5.63;56.06;91268.31;5111977;28;20144;-78
2023/12/21 17:38:12;;;;;;;2.33;1.40;;;;;;;5.62;55.81;91274.56;5111889;28;20394;-78
2023/12/21 17:40:39;;;;;;;3.55;1.80;;;;;;;5.60;55.86;91276.66;5111121;28;20035;-77
2023/12/21 17:43:04;;;;;;;1.70;1.30;;;;;;;5.60;56.82;91291.47;5098042;28;20098;-77
2023/12/21 17:45:30;;;;;;;2.78;1.48;;;;;;;5.57;57.63;91285.03;5091626;28;20052;-77
2023/12/21 17:47:55;;;;;;;3.55;1.70;;;;;;;5.55;57.68;91286.38;5091888;28;20554;-77
2023/12/21 17:50:22;;;;;;;2.88;1.60;;;;;;;5.53;57.45;91289.25;5090098;28;20115;-77
2023/12/21 17:52:49;;;;;;;1.65;1.20;;;;;;;5.52;57.39;91279.94;5090969;28;20047;-77
2023/12/21 17:55:14;;;;;;;2.75;1.48;;;;;;;5.50;57.94;91278.69;5092415;28;20039;-77
2023/12/21 17:57:40;;;;;;;3.45;1.80;;;;;;;5.48;57.35;91276.34;5094391;28;20032;-77
2023/12/21 18:00:06;;;;;;;3.15;1.67;;;;;;;5.45;57.29;91261.34;5112593;28;20161;-78
2023/12/21 18:02:32;;;;;;;2.30;1.50;;;;;;;5.38;55.76;91264.31;5111276;28;20032;-76
2023/12/21 18:04:57;;;;;;;2.80;1.60;;;;;;;5.45;56.89;91256.16;5094159;28;20046;-77
2023/12/21 18:07:23;;;;;;;2.42;1.27;;;;;;;5.45;57.00;91245.78;5113510;28;20035;-77
2023/12/21 18:09:48;;;;;;;2.35;1.30;;;;;;;5.46;57.25;91246.56;5100823;28;20031;-78
2023/12/21 18:12:14;;;;;;;2.40;1.33;;;;;;;5.48;56.74;91247.81;5111679;27;20034;-77
2023/12/21 18:14:42;;;;;;;5.13;2.42;;;;;;;5.50;57.18;91269.06;5096496;27;20032;-78
2023/12/21 18:17:07;;;;;;;8.05;4.55;;;;;;;5.51;57.27;91270.59;5093656;28;20123;-78
2023/12/21 18:19:33;;;;;;;5.00;2.40;;;;;;;5.51;57.41;91275.78;5095074;28;20088;-78
2023/12/21 18:21:58;;;;;;;2.67;1.52;;;;;;;5.54;57.26;91272.63;5106683;28;20055;-78
2023/12/21 18:24:25;;;;;;;2.25;1.30;;;;;;;5.56;56.79;91262.75;5120235;27;20035;-78
2023/12/21 18:26:51;;;;;;;2.33;1.38;;;;;;;5.59;56.96;91262.16;5120843;27;20471;-76
2023/12/21 18:29:17;;;;;;;5.07;2.65;;;;;;;5.60;56.69;91268.88;5095865;28;20118;-77
2023/12/21 18:31:43;;;;;;;6.60;2.70;;;;;;;5.61;56.49;91265.25;5112457;28;20046;-78
2023/12/21 18:34:09;;;;;;;5.32;1.90;;;;;;;5.62;56.81;91256.38;5109045;28;20046;-77
2023/12/21 18:36:36;;;;;;;1.85;1.30;;;;;;;5.66;57.24;91259.19;5089987;28;20032;-76
2023/12/21 18:39:03;;;;;;;2.70;1.40;;;;;;;5.68;57.27;91256.31;5092544;28;20028;-76
2023/12/21 18:41:29;;;;;;;2.95;1.33;;;;;;;5.74;54.92;91244.78;5088879;28;20499;-76
2023/12/21 18:43:55;;;;;;;2.50;1.50;;;;;;;5.89;52.36;91252.28;5088994;28;20089;-76
2023/12/21 18:46:20;;;;;;;2.60;1.48;;;;;;;6.00;53.33;91251.09;5089275;28;20039;-75
2023/12/21 18:48:46;;;;;;;3.30;1.77;;;;;;;5.96;55.09;91223.38;5088842;28;20111;-76
2023/12/21 18:51:15;;;;;;;2.28;1.60;;;;;;;5.98;55.01;91237.63;5088858;28;20119;-76
2023/12/21 18:53:41;;;;;;;4.70;1.70;;;;;;;6.01;56.59;91237.06;5098156;28;20046;-77
2023/12/21 18:56:08;;;;;;;1.45;1.20;;;;;;;6.01;57.90;91239.66;5109842;28;20039;-76
2023/12/21 18:58:35;;;;;;;1.67;1.20;;;;;;;6.03;61.57;91240.13;5108954;28;20023;-76
2023/12/21 19:01:03;;;;;;;3.25;1.88;;;;;;;5.99;62.02;91239.16;5099853;28;20036;-76
2023/12/21 19:03:31;;;;;;;5.85;2.67;;;;;;;5.97;63.77;91230.91;5088819;28;20058;-76
2023/12/21 19:05:58;;;;;;;3.63;2.03;;;;;;;5.94;66.50;91231.44;5088108;28;20055;-76
2023/12/21 19:08:24;;;;;;;4.13;1.80;;;;;;;5.91;65.90;91218.25;5097548;28;20036;-76
2023/12/21 19:10:49;;;;;;;3.15;1.40;;;;;;;5.93;65.72;91234.31;5108581;28;20036;-76
2023/12/21 19:13:15;;;;;;;1.67;1.20;;;;;;;5.93;64.59;91214.31;5108741;28;20027;-76
2023/12/21 19:15:45;;;;;;;4.95;2.70;;;;;;;6.31;66.86;91218.56;5092820;28;20043;-76
2023/12/21 19:18:11;;;;;;;2.83;1.60;;;;;;;6.24;66.06;91211.94;5095898;27;20432;-76
2023/12/21 19:20:36;;;;;;;3.10;1.67;;;;;;;6.19;65.53;91206.06;5118388;27;20028;-76
2023/12/21 19:23:02;;;;;;;1.95;1.20;;;;;;;6.21;66.12;91203.94;5108615;28;20070;-76
2023/12/21 19:25:28;;;;;;;2.53;1.50;;;;;;;6.25;68.53;91210.84;5102683;28;20031;-78
2023/12/21 19:27:54;;;;;;;5.63;2.30;;;;;;;6.24;69.42;91211.94;5098146;28;20043;-76
2023/12/21 19:30:19;;;;;;;4.97;2.05;;;;;;;6.22;69.45;91211.44;5094129;28;20040;-76
2023/12/21 19:32:45;;;;;;;5.15;2.20;;;;;;;6.22;70.21;91200.28;5088150;28;20289;-76
2023/12/21 19:35:10;;;;;;;1.63;1.20;;;;;;;6.22;70.03;91205.50;5093553;28;20024;-77
2023/12/21 19:37:36;;;;;;;1.80;1.23;;;;;;;6.30;70.50;91207.38;5125194;28;20547;-76
2023/12/21 19:40:03;;;;;;;2.22;1.35;;;;;;;7.21;68.32;91203.88;5123774;27;20463;-76
2023/12/21 19:42:30;;;;;;;4.57;2.05;;;;;;;6.96;69.91;91212.25;5100992;28;20093;-76
2023/12/21 19:44:55;;;;;;;3.00;1.80;;;;;;;6.82;71.02;91209.69;5088010;28;20040;-76
2023/12/21 19:47:21;;;;;;;3.10;1.67;;;;;;;6.74;72.92;91211.19;5107734;28;20044;-76
2023/12/21 19:49:46;;;;;;;3.97;2.22;;;;;;;6.68;73.59;91204.53;5095565;28;20353;-76
2023/12/21 19:52:12;;;;;;;4.13;1.95;;;;;;;7.01;79.69;91209.56;5107369;28;20494;-76
2023/12/21 19:54:38;;;;;;;3.60;2.00;;;;;;;7.06;67.74;91207.59;5106597;27;20494;-76
2023/12/21 19:57:04;;;;;;;5.45;1.67;;;;;;;7.03;66.35;91212.63;5108765;28;20482;-76
2023/12/21 19:59:30;;;;;;;2.50;1.50;;;;;;;7.01;65.79;91244.16;5107478;28;20053;-75
2023/12/21 20:01:56;;;;;;;3.33;1.90;;;;;;;6.95;67.61;91228.94;5101201;28;20042;-75
2023/12/21 20:04:22;;;;;;;4.55;1.98;;;;;;;6.88;68.76;91226.75;5109966;28;20031;-75
2023/12/21 20:06:48;;;;;;;3.80;1.67;;;;;;;6.96;74.20;91217.47;5107030;27;20034;-77
2023/12/21 20:09:15;;;;;;;4.50;1.63;;;;;;;7.13;79.22;91211.63;5103357;28;20103;-77
2023/12/21 20:11:41;;;;;;;4.07;2.28;;;;;;;7.25;78.33;91210.03;5099436;28;20035;-78
2023/12/21 20:14:07;;;;;;;4.25;2.15;;;;;;;7.24;77.47;91205.88;5107843;28;20036;-78
2023/12/21 20:16:33;;;;;;;4.60;2.10;;;;;;;7.19;76.86;91207.84;5109340;28;20039;-79
2023/12/21 20:18:59;;;;;;;5.18;2.75;;;;;;;7.13;77.94;91212.41;5095677;28;20077;-79
2023/12/21 20:21:27;;;;;;;6.63;3.13;;;;;;;7.07;77.75;91197.97;5115298;27;20047;-79
2023/12/21 20:23:56;;;;;;;4.63;1.70;;;;;;;7.01;75.71;91183.53;5110928;28;20051;-79
2023/12/21 20:26:22;;;;;;;3.20;1.70;;;;;;;6.96;75.85;91191.44;5111050;28;20043;-79
2023/12/21 20:28:48;;;;;;;4.47;2.00;;;;;;;7.13;81.96;91209.78;5110269;28;20039;-79
2023/12/21 20:31:15;;;;;;;2.40;1.48;;;;;;;7.07;72.18;91192.78;5116595;28;20372;-79
2023/12/21 20:33:41;;;;;;;1.83;1.23;;;;;;;6.97;69.73;91178.16;5120517;28;20118;-79
2023/12/21 20:36:06;;;;;;;1.20;1.02;;;;;;;6.98;73.19;91194.53;5117890;28;20126;-79
2023/12/21 20:38:33;;;;;;;2.40;1.30;;;;;;;7.18;76.84;91198.50;5117849;28;20028;-79
2023/12/21 20:40:58;;;;;;;18.55;10.05;;;;;;;7.11;71.14;91204.09;5115361;28;20040;-79
2023/12/21 20:43:24;;;;;;;12.40;6.60;;;;;;;6.98;71.92;91208.31;5116780;28;20050;-79
2023/12/21 20:45:50;;;;;;;4.28;1.98;;;;;;;6.92;73.13;91217.28;5109330;28;21196;-79
2023/12/21 20:48:15;;;;;;;3.13;1.75;;;;;;;6.87;73.00;91202.56;5111617;28;20107;-79
2023/12/21 20:50:42;;;;;;;6.38;2.50;;;;;;;6.87;72.75;91194.00;5111965;27;20433;-79
2023/12/21 20:53:08;;;;;;;7.03;2.20;;;;;;;6.83;73.38;91193.81;5119217;28;20031;-79
2023/12/21 20:55:34;;;;;;;4.85;1.90;;;;;;;6.93;79.32;91207.66;5118144;28;20039;-79
2023/12/21 20:58:01;;;;;;;2.03;1.23;;;;;;;7.11;79.07;91214.53;5107467;28;20058;-78
2023/12/21 21:00:28;;;;;;;2.35;1.50;;;;;;;7.24;80.24;91216.28;5112777;28;20050;-79
2023/12/21 21:02:54;;;;;;;2.28;1.40;;;;;;;7.78;77.13;91205.88;5113020;28;20031;-79
2023/12/21 21:05:20;;;;;;;0.73;0.73;;;;;;;8.24;71.63;91199.50;5116517;28;20659;-79
2023/12/21 21:07:46;;;;;;;4.18;0.95;;;;;;;8.43;71.96;91208.91;5118324;28;20031;-79
2023/12/21 21:10:12;;;;;;;1.00;1.00;;;;;;;8.58;71.98;91220.75;5118748;28;20119;-79
2023/12/21 21:12:37;;;;;;;1.75;1.08;;;;;;;8.55;72.12;91217.66;5112913;28;20032;-79
2023/12/21 21:15:04;;;;;;;1.00;0.90;;;;;;;8.55;72.98;91216.91;5116060;28;20170;-79
2023/12/21 21:17:29;;;;;;;0.55;0.55;;;;;;;8.59;73.62;91207.41;5118944;27;20036;-80
2023/12/21 21:19:55;;;;;;;2.85;1.70;;;;;;;8.51;74.06;91198.50;5119572;28;20039;-80
2023/12/21 21:22:21;;;;;;;2.00;1.40;;;;;;;8.49;73.55;91197.28;5117036;28;20061;-79
2023/12/21 21:24:46;;;;;;;0.80;0.80;;;;;;;8.37;74.22;91192.59;5116021;28;20126;-79
2023/12/21 21:27:12;;;;;;;0.70;0.70;;;;;;;8.34;74.51;91201.03;5112006;28;20110;-79
2023/12/21 21:29:37;;;;;;;1.17;1.00;;;;;;;8.43;73.76;91201.09;5115295;28;20044;-79
2023/12/21 21:32:03;;;;;;;0.77;0.77;;;;;;;8.66;73.12;91201.75;5115794;28;20036;-79
2023/12/21 21:34:29;;;;;;;0.88;0.88;;;;;;;8.88;71.57;91212.06;5107553;28;20039;-79
2023/12/21 21:36:54;;;;;;;0.68;0.68;;;;;;;8.88;71.43;91206.06;5114398;27;20031;-79
2023/12/21 21:39:20;;;;;;;1.00;0.90;;;;;;;8.92;71.92;91188.72;5119007;28;20023;-79
2023/12/21 21:41:49;;;;;;;1.00;0.90;;;;;;;8.95;70.50;91191.47;5118595;28;20032;-79
2023/12/21 21:44:17;;;;;;;0.80;0.80;;;;;;;8.92;69.81;91199.94;5116728;28;20036;-79
2023/12/21 21:46:44;;;;;;;3.75;1.60;;;;;;;8.89;72.01;91200.56;5116311;27;20391;-79
2023/12/21 21:49:10;;;;;;;3.08;1.58;;;;;;;8.78;73.20;91212.38;5117046;28;20031;-80
2023/12/21 21:51:39;;;;;;;1.35;0.85;;;;;;;8.64;72.33;91220.28;5114169;28;20031;-79
2023/12/21 21:54:05;;;;;;;0.70;0.70;;;;;;;8.48;71.92;91212.13;5115235;28;20044;-79
2023/12/21 21:56:31;;;;;;;0.93;0.88;;;;;;;8.43;72.37;91216.75;5118180;27;20031;-79
2023/12/21 21:59:00;;;;;;;0.80;0.80;;;;;;;8.37;73.58;91205.63;5116074;28;20043;-79
2023/12/21 22:01:27;;;;;;;0.70;0.60;;;;;;;8.35;72.97;91205.16;5110229;28;20020;-79
2023/12/21 22:03:56;;;;;;;0.60;0.60;;;;;;;8.34;72.35;91188.00;5101838;28;20040;-79
2023/12/21 22:06:26;;;;;;;0.98;0.95;;;;;;;8.33;71.73;91202.09;5116775;28;20039;-79
2023/12/21 22:08:52;;;;;;;0.80;0.80;;;;;;;8.32;70.14;91190.13;5105357;27;20570;-79
2023/12/21 22:11:19;;;;;;;1.38;0.60;;;;;;;8.49;68.29;91203.25;5117848;28;20065;-79
2023/12/21 22:13:45;;;;;;;0.70;0.70;;;;;;;8.45;68.74;91210.16;5112279;28;20127;-79
